createdAt,value
2023-04-16T00:02:25.701Z,12.88
2023-04-16T00:04:54.452Z,12.13
2023-04-16T00:07:23.472Z,12.65
2023-04-16T00:09:52.151Z,14.85
2023-04-16T00:12:22.895Z,12.95
2023-04-16T00:14:51.536Z,14.52
2023-04-16T00:17:20.226Z,16.40
2023-04-16T00:19:48.536Z,17.90
2023-04-16T00:22:17.195Z,17.08
2023-04-16T00:24:45.817Z,16.63
2023-04-16T00:27:14.496Z,15.43
2023-04-16T00:29:44.444Z,18.75
2023-04-16T00:32:13.454Z,22.15
2023-04-16T00:34:41.913Z,17.77
2023-04-16T00:37:11.104Z,17.88
2023-04-16T00:39:39.764Z,18.73
2023-04-16T00:42:08.790Z,15.73
2023-04-16T00:44:37.584Z,11.10
2023-04-16T00:47:08.341Z,12.98
2023-04-16T00:49:37.837Z,11.45
2023-04-16T00:52:08.551Z,11.18
2023-04-16T00:54:37.484Z,11.15
2023-04-16T00:57:07.182Z,10.32
2023-04-16T00:59:35.820Z,10.75
2023-04-16T01:02:04.848Z,11.85
2023-04-16T01:04:36.022Z,11.60
2023-04-16T01:07:05.680Z,11.23
2023-04-16T01:09:34.045Z,11.50
2023-04-16T01:12:05.496Z,11.32
2023-04-16T01:14:36.576Z,11.47
2023-04-16T01:17:05.888Z,11.93
2023-04-16T01:19:37.313Z,13.18
2023-04-16T01:22:07.709Z,13.15
2023-04-16T01:24:36.640Z,14.77
2023-04-16T01:27:05.798Z,12.93
2023-04-16T01:29:35.226Z,14.50
2023-04-16T01:32:04.210Z,12.45
2023-04-16T01:34:36.002Z,12.95
2023-04-16T01:37:05.350Z,13.52
2023-04-16T01:39:35.768Z,13.07
2023-04-16T01:42:04.521Z,13.23
2023-04-16T01:44:33.512Z,11.63
2023-04-16T01:47:02.444Z,12.88
2023-04-16T01:49:31.268Z,12.55
2023-04-16T01:52:01.180Z,13.55
2023-04-16T01:54:29.624Z,12.80
2023-04-16T01:57:01.932Z,14.65
2023-04-16T01:59:30.264Z,15.75
2023-04-16T02:02:02.527Z,12.57
2023-04-16T02:04:31.221Z,13.23
2023-04-16T02:07:00.146Z,12.93
2023-04-16T02:09:28.650Z,15.23
2023-04-16T02:11:59.420Z,13.77
2023-04-16T02:14:28.119Z,16.85
2023-04-16T02:16:57.474Z,13.90
2023-04-16T02:19:44.930Z,13.32
2023-04-16T02:22:14.098Z,14.00
2023-04-16T02:24:42.504Z,16.58
2023-04-16T02:27:13.846Z,14.52
2023-04-16T02:29:43.306Z,13.02
2023-04-16T02:32:16.681Z,13.85
2023-04-16T02:34:47.248Z,16.83
2023-04-16T02:37:17.748Z,16.08
2023-04-16T02:39:47.520Z,14.85
2023-04-16T02:42:18.550Z,15.55
2023-04-16T02:44:47.340Z,15.85
2023-04-16T02:47:16.144Z,16.83
2023-04-16T02:49:44.924Z,15.70
2023-04-16T02:52:15.601Z,16.52
2023-04-16T02:54:44.189Z,16.48
2023-04-16T02:57:13.255Z,15.75
2023-04-16T02:59:43.355Z,18.42
2023-04-16T03:02:12.433Z,16.77
2023-04-16T03:04:41.114Z,16.85
2023-04-16T03:07:11.269Z,19.20
2023-04-16T03:12:08.049Z,18.77
2023-04-16T03:14:36.512Z,18.88
2023-04-16T03:17:06.859Z,19.70
2023-04-16T03:19:35.675Z,16.17
2023-04-16T03:22:04.413Z,17.00
2023-04-16T03:24:32.770Z,17.70
2023-04-16T03:27:02.116Z,18.20
2023-04-16T03:29:30.753Z,18.95
2023-04-16T03:32:00.438Z,19.85
2023-04-16T03:34:30.627Z,17.00
2023-04-16T03:36:59.648Z,20.95
2023-04-16T03:39:28.581Z,20.15
2023-04-16T03:41:57.565Z,21.48
2023-04-16T03:44:26.115Z,18.60
2023-04-16T03:46:54.974Z,17.40
2023-04-16T03:49:24.441Z,17.85
2023-04-16T03:51:55.607Z,18.10
2023-04-16T03:54:24.126Z,17.80
2023-04-16T03:57:01.122Z,21.85
2023-04-16T03:59:29.585Z,19.88
2023-04-16T04:01:58.823Z,18.53
2023-04-16T04:04:28.104Z,18.85
2023-04-16T04:06:59.024Z,17.45
2023-04-16T04:09:28.895Z,18.17
2023-04-16T04:11:58.943Z,17.70
2023-04-16T04:14:27.593Z,19.20
2023-04-16T04:16:56.331Z,19.27
2023-04-16T04:19:25.116Z,18.85
2023-04-16T04:21:54.042Z,17.77
2023-04-16T04:24:24.850Z,21.88
2023-04-16T04:26:54.246Z,19.38
2023-04-16T04:29:23.688Z,19.67
2023-04-16T04:31:52.810Z,18.30
2023-04-16T04:34:21.519Z,18.00
2023-04-16T04:36:50.371Z,20.70
2023-04-16T04:39:21.746Z,19.55
2023-04-16T04:41:52.985Z,20.35
2023-04-16T04:44:22.193Z,20.10
2023-04-16T04:46:50.910Z,19.45
2023-04-16T04:49:20.450Z,19.52
2023-04-16T04:51:49.937Z,18.05
2023-04-16T04:54:18.662Z,21.52
2023-04-16T04:56:47.758Z,18.42
2023-04-16T04:59:18.057Z,18.98
2023-04-16T05:01:46.902Z,18.60
2023-04-16T05:04:15.877Z,17.55
2023-04-16T05:06:44.951Z,19.50
2023-04-16T05:09:13.589Z,19.05
2023-04-16T05:11:43.369Z,19.45
2023-04-16T05:14:12.196Z,20.42
2023-04-16T05:16:42.875Z,20.50
2023-04-16T05:21:40.821Z,19.17
2023-04-16T05:24:09.564Z,22.27
2023-04-16T05:26:38.478Z,17.35
2023-04-16T05:29:07.299Z,20.05
2023-04-16T05:31:36.122Z,20.73
2023-04-16T05:34:06.146Z,21.33
2023-04-16T05:36:35.112Z,20.80
2023-04-16T05:39:03.713Z,22.25
2023-04-16T05:41:32.707Z,19.63
2023-04-16T05:44:01.382Z,21.15
2023-04-16T05:46:30.431Z,22.75
2023-04-16T05:48:59.095Z,20.10
2023-04-16T05:51:29.290Z,19.80
2023-04-16T05:56:27.422Z,18.98
2023-04-16T05:58:55.825Z,21.02
2023-04-16T06:01:24.570Z,20.13
2023-04-16T06:03:53.070Z,22.08
2023-04-16T06:06:21.997Z,20.47
2023-04-16T06:08:51.792Z,20.48
2023-04-16T06:11:20.957Z,21.63
2023-04-16T06:13:49.850Z,19.52
2023-04-16T06:16:18.998Z,22.98
2023-04-16T06:18:47.649Z,24.00
2023-04-16T06:21:16.931Z,22.42
2023-04-16T06:23:45.254Z,18.87
2023-04-16T06:26:15.479Z,23.15
2023-04-16T06:31:12.943Z,22.57
2023-04-16T06:33:41.634Z,22.58
2023-04-16T06:36:11.600Z,23.55
2023-04-16T06:41:08.566Z,18.20
2023-04-16T06:43:38.414Z,16.98
2023-04-16T06:46:07.482Z,16.95
2023-04-16T06:48:35.974Z,18.58
2023-04-16T06:51:05.492Z,17.97
2023-04-16T06:53:34.293Z,16.17
2023-04-16T06:56:03.370Z,18.25
2023-04-16T06:58:31.912Z,15.75
2023-04-16T07:01:02.868Z,17.00
2023-04-16T07:03:31.435Z,16.52
2023-04-16T07:06:00.443Z,18.35
2023-04-16T07:08:32.072Z,16.95
2023-04-16T07:11:01.202Z,17.17
2023-04-16T07:13:29.683Z,17.42
2023-04-16T07:15:58.431Z,19.03
2023-04-16T07:18:28.580Z,17.88
2023-04-16T07:20:57.516Z,17.35
2023-04-16T07:23:26.209Z,16.90
2023-04-16T07:25:55.563Z,15.95
2023-04-16T07:28:25.426Z,16.02
2023-04-16T07:30:54.158Z,16.95
2023-04-16T07:33:22.678Z,15.80
2023-04-16T07:35:53.413Z,16.85
2023-04-16T07:38:21.854Z,16.45
2023-04-16T07:40:50.896Z,15.50
2023-04-16T07:43:19.320Z,15.68
2023-04-16T07:45:48.544Z,15.98
2023-04-16T07:48:17.198Z,19.23
2023-04-16T07:50:46.265Z,14.97
2023-04-16T07:53:16.328Z,15.63
2023-04-16T07:55:45.172Z,14.77
2023-04-16T07:58:14.728Z,15.38
2023-04-16T08:00:44.043Z,16.38
2023-04-16T08:03:12.678Z,16.63
2023-04-16T08:05:41.717Z,19.20
2023-04-16T08:08:10.772Z,17.50
2023-04-16T08:10:41.753Z,17.50
2023-04-16T08:13:10.726Z,16.10
2023-04-16T08:15:39.637Z,15.15
2023-04-16T08:18:13.000Z,14.80
2023-04-16T08:20:42.154Z,13.70
2023-04-16T08:23:10.664Z,16.63
2023-04-16T08:25:39.523Z,20.38
2023-04-16T08:28:09.768Z,14.18
2023-04-16T08:30:38.814Z,12.73
2023-04-16T08:33:07.722Z,11.85
2023-04-16T08:35:36.497Z,10.35
2023-04-16T08:38:05.488Z,12.35
2023-04-16T08:40:36.478Z,11.77
2023-04-16T08:43:07.300Z,12.18
2023-04-16T08:45:38.066Z,10.95
2023-04-16T08:48:07.863Z,12.82
2023-04-16T08:50:37.682Z,11.20
2023-04-16T08:53:08.149Z,10.30
2023-04-16T08:55:40.355Z,9.40
2023-04-16T08:58:15.183Z,11.15
2023-04-16T09:00:46.425Z,9.82
2023-04-16T09:03:15.240Z,10.23
2023-04-16T09:05:46.076Z,9.95
2023-04-16T09:08:14.741Z,9.90
2023-04-16T09:10:44.677Z,8.63
2023-04-16T09:13:16.559Z,8.93
2023-04-16T09:15:47.907Z,8.88
2023-04-16T09:18:16.394Z,9.13
2023-04-16T09:20:45.625Z,8.38
2023-04-16T09:23:14.361Z,8.77
2023-04-16T09:25:43.095Z,7.55
2023-04-16T09:28:13.037Z,8.65
2023-04-16T09:30:41.894Z,9.68
2023-04-16T09:33:23.032Z,11.40
2023-04-16T09:35:53.798Z,8.60
2023-04-16T09:38:22.727Z,7.45
2023-04-16T09:41:08.441Z,7.35
2023-04-16T09:43:37.171Z,7.85
2023-04-16T09:46:08.108Z,7.95
2023-04-16T09:48:38.400Z,11.27
2023-04-16T09:51:08.453Z,8.38
2023-04-16T09:53:36.899Z,8.18
2023-04-16T09:56:08.091Z,8.23
2023-04-16T09:58:38.018Z,7.70
2023-04-16T10:01:11.009Z,8.27
2023-04-16T10:03:42.261Z,8.02
2023-04-16T10:06:19.585Z,9.43
2023-04-16T10:08:50.225Z,10.25
2023-04-16T10:11:20.571Z,11.75
2023-04-16T10:16:18.997Z,10.50
2023-04-16T10:18:49.247Z,9.20
2023-04-16T10:21:18.137Z,13.95
2023-04-16T10:23:47.465Z,8.57
2023-04-16T10:28:46.839Z,9.02
2023-04-16T10:31:16.436Z,8.60
2023-04-16T10:33:46.335Z,9.30
2023-04-16T10:36:18.529Z,8.75
2023-04-16T10:38:50.548Z,12.07
2023-04-16T10:41:21.728Z,10.43
2023-04-16T10:43:52.105Z,9.27
2023-04-16T10:46:22.799Z,8.05
2023-04-16T10:48:53.956Z,9.75
2023-04-16T10:51:29.959Z,10.07
2023-04-16T10:53:59.716Z,9.98
2023-04-16T10:56:30.613Z,10.55
2023-04-16T10:58:59.780Z,8.68
2023-04-16T11:01:33.103Z,8.60
2023-04-16T11:04:03.358Z,8.23
2023-04-16T11:06:33.766Z,8.48
2023-04-16T11:11:39.772Z,8.82
2023-04-16T11:14:10.567Z,9.77
2023-04-16T11:16:42.373Z,11.00
2023-04-16T11:19:17.844Z,10.00
2023-04-16T11:21:48.584Z,10.13
2023-04-16T11:24:17.213Z,9.63
2023-04-16T11:26:46.005Z,10.18
2023-04-16T11:29:16.203Z,9.65
2023-04-16T11:31:52.293Z,9.63
2023-04-16T11:34:21.716Z,9.73
2023-04-16T11:36:53.358Z,10.65
2023-04-16T11:39:21.794Z,10.85
2023-04-16T11:41:52.584Z,9.48
2023-04-16T11:44:22.688Z,10.38
2023-04-16T11:46:52.003Z,9.63
2023-04-16T11:49:29.281Z,8.80
2023-04-16T11:51:59.942Z,9.30
2023-04-16T11:54:35.056Z,9.48
2023-04-16T11:57:05.176Z,10.05
2023-04-16T12:02:02.834Z,11.27
2023-04-16T12:04:34.871Z,10.80
2023-04-16T12:07:09.423Z,11.93
2023-04-16T12:09:40.406Z,13.52
2023-04-16T12:12:31.158Z,12.20
2023-04-16T12:15:03.944Z,13.55
2023-04-16T12:17:34.172Z,14.15
2023-04-16T12:22:37.656Z,13.20
2023-04-16T12:25:08.898Z,13.85
2023-04-16T12:27:46.871Z,13.55
2023-04-16T12:30:16.932Z,13.40
2023-04-16T12:32:49.902Z,16.58
2023-04-16T12:35:32.556Z,14.20
2023-04-16T12:38:03.659Z,16.83
2023-04-16T12:40:34.810Z,17.10
2023-04-16T12:43:03.791Z,16.70
2023-04-16T12:45:32.481Z,16.67
2023-04-16T12:48:01.521Z,14.88
2023-04-16T12:50:30.289Z,15.60
2023-04-16T12:52:59.812Z,14.27
2023-04-16T12:55:29.916Z,12.60
2023-04-16T12:57:59.532Z,12.25
2023-04-16T13:00:28.157Z,14.30
2023-04-16T13:02:56.961Z,12.18
2023-04-16T13:05:25.383Z,11.95
2023-04-16T13:07:54.076Z,11.50
2023-04-16T13:10:23.685Z,11.85
2023-04-16T13:12:54.061Z,11.93
2023-04-16T13:15:22.506Z,11.25
2023-04-16T13:17:51.507Z,12.40
2023-04-16T13:20:20.509Z,12.90
2023-04-16T13:22:50.466Z,14.80
2023-04-16T13:25:18.971Z,14.23
2023-04-16T13:27:48.511Z,13.33
2023-04-16T13:30:18.698Z,13.07
2023-04-16T13:32:47.839Z,12.90
2023-04-16T13:35:16.275Z,13.70
2023-04-16T13:37:46.180Z,13.63
2023-04-16T13:40:14.791Z,13.93
2023-04-16T13:42:45.911Z,13.98
2023-04-16T13:45:14.641Z,14.10
2023-04-16T13:47:44.862Z,13.27
2023-04-16T13:50:13.532Z,15.55
2023-04-16T13:52:42.494Z,15.82
2023-04-16T13:55:14.017Z,15.88
2023-04-16T13:57:43.016Z,17.20
2023-04-16T14:00:13.325Z,16.08
2023-04-16T14:02:46.062Z,17.50
2023-04-16T14:05:14.863Z,17.48
2023-04-16T14:07:43.670Z,15.18
2023-04-16T14:10:12.467Z,16.23
2023-04-16T14:12:41.578Z,18.73
2023-04-16T14:15:11.338Z,15.88
2023-04-16T14:17:40.113Z,15.60
2023-04-16T14:20:11.853Z,16.67
2023-04-16T14:22:42.614Z,16.35
2023-04-16T14:25:11.244Z,17.15
2023-04-16T14:27:41.508Z,17.65
2023-04-16T14:32:39.034Z,15.15
2023-04-16T14:35:10.438Z,16.13
2023-04-16T14:37:39.170Z,15.13
2023-04-16T14:40:09.837Z,13.57
2023-04-16T14:42:38.869Z,15.02
2023-04-16T14:45:09.573Z,13.02
2023-04-16T14:47:45.899Z,13.52
2023-04-16T14:50:16.523Z,13.90
2023-04-16T14:52:45.206Z,13.63
2023-04-16T14:55:13.833Z,12.40
2023-04-16T14:57:44.237Z,12.45
2023-04-16T15:00:17.308Z,14.97
2023-04-16T15:02:46.518Z,13.85
2023-04-16T15:05:16.769Z,13.35
2023-04-16T15:07:48.137Z,12.95
2023-04-16T15:10:17.329Z,12.98
2023-04-16T15:12:46.102Z,13.95
2023-04-16T15:15:14.864Z,12.85
2023-04-16T15:17:45.336Z,11.77
2023-04-16T15:20:14.163Z,13.30
2023-04-16T15:22:44.806Z,13.48
2023-04-16T15:25:13.563Z,13.73
2023-04-16T15:27:42.308Z,12.27
2023-04-16T15:30:12.748Z,13.32
2023-04-16T15:32:42.089Z,13.35
2023-04-16T15:35:11.491Z,12.55
2023-04-16T15:37:41.060Z,13.05
2023-04-16T15:40:11.208Z,12.35
2023-04-16T15:42:40.513Z,13.23
2023-04-16T15:45:09.345Z,13.73
2023-04-16T15:47:40.194Z,14.35
2023-04-16T15:50:10.329Z,13.63
2023-04-16T15:52:39.552Z,13.07
2023-04-16T15:55:08.360Z,13.55
2023-04-16T15:57:38.464Z,11.73
2023-04-16T16:02:43.089Z,11.95
2023-04-16T16:05:12.560Z,17.33
2023-04-16T16:07:41.543Z,12.25
2023-04-16T16:10:13.056Z,12.43
2023-04-16T16:12:43.611Z,10.55
2023-04-16T16:15:12.210Z,14.45
2023-04-16T16:17:41.558Z,12.30
2023-04-16T16:20:12.901Z,12.50
2023-04-16T16:22:45.345Z,11.95
2023-04-16T16:25:14.109Z,11.88
2023-04-16T16:27:44.259Z,12.15
2023-04-16T16:30:13.814Z,12.15
2023-04-16T16:32:44.398Z,12.20
2023-04-16T16:35:13.088Z,12.40
2023-04-16T16:37:41.736Z,11.23
2023-04-16T16:40:11.423Z,15.18
2023-04-16T16:42:40.576Z,13.88
2023-04-16T16:45:12.215Z,11.35
2023-04-16T16:47:41.754Z,13.02
2023-04-16T16:50:11.976Z,12.20
2023-04-16T16:52:41.165Z,11.10
2023-04-16T16:55:11.351Z,10.70
2023-04-16T16:57:41.334Z,14.77
2023-04-16T17:00:14.605Z,13.15
2023-04-16T17:02:43.866Z,13.98
2023-04-16T17:05:12.958Z,12.60
2023-04-16T17:07:41.938Z,12.13
2023-04-16T17:10:13.301Z,18.33
2023-04-16T17:12:42.512Z,28.95
2023-04-16T17:15:14.006Z,16.33
2023-04-16T17:17:43.293Z,25.60
2023-04-16T17:20:12.702Z,47.97
2023-04-16T17:22:41.491Z,17.20
2023-04-16T17:25:10.653Z,12.45
2023-04-16T17:27:39.490Z,12.20
2023-04-16T17:30:09.693Z,12.05
2023-04-16T17:32:40.176Z,12.50
2023-04-16T17:35:10.063Z,11.30
2023-04-16T17:37:39.166Z,12.45
2023-04-16T17:40:10.154Z,35.97
2023-04-16T17:42:38.978Z,16.25
2023-04-16T17:45:08.370Z,15.77
2023-04-16T17:50:08.707Z,48.17
2023-04-16T17:52:38.397Z,14.52
2023-04-16T17:55:08.064Z,14.40
2023-04-16T17:57:37.391Z,11.85
2023-04-16T18:00:11.124Z,11.38
2023-04-16T18:02:43.101Z,12.93
2023-04-16T18:05:13.522Z,12.73
2023-04-16T18:07:43.792Z,11.68
2023-04-16T18:10:12.397Z,12.05
2023-04-16T18:12:41.278Z,14.00
2023-04-16T18:15:11.020Z,11.40
2023-04-16T18:17:40.576Z,12.02
2023-04-16T18:20:11.827Z,13.40
2023-04-16T18:22:42.585Z,13.70
2023-04-16T18:25:12.095Z,12.23
2023-04-16T18:27:41.218Z,11.55
2023-04-16T18:30:20.093Z,13.43
2023-04-16T18:33:16.653Z,12.23
2023-04-16T18:35:41.556Z,13.18
2023-04-16T18:38:13.748Z,11.32
2023-04-16T18:40:42.611Z,10.80
2023-04-16T18:43:11.406Z,11.43
2023-04-16T18:48:08.774Z,10.68
2023-04-16T18:50:37.397Z,12.60
2023-04-16T18:53:06.262Z,11.48
2023-04-16T18:55:36.133Z,10.70
2023-04-16T18:58:04.927Z,11.65
2023-04-16T19:00:34.689Z,11.38
2023-04-16T19:03:07.147Z,11.77
2023-04-16T19:05:35.921Z,10.85
2023-04-16T19:08:05.057Z,10.97
2023-04-16T19:10:33.572Z,8.68
2023-04-16T19:13:04.029Z,9.57
2023-04-16T19:15:34.370Z,8.48
2023-04-16T19:18:04.030Z,9.07
2023-04-16T19:20:35.731Z,8.27
2023-04-16T19:23:05.565Z,7.38
2023-04-16T19:25:34.500Z,8.48
2023-04-16T19:28:04.937Z,7.53
2023-04-16T19:30:33.496Z,8.13
2023-04-16T19:33:02.700Z,7.13
2023-04-16T19:35:31.603Z,6.78
2023-04-16T19:38:00.833Z,6.47
2023-04-16T19:40:29.480Z,6.25
2023-04-16T19:42:58.705Z,6.13
2023-04-16T19:45:29.343Z,6.27
2023-04-16T19:47:58.457Z,5.70
2023-04-16T19:50:27.276Z,6.10
2023-04-16T19:52:56.373Z,5.78
2023-04-16T19:55:25.402Z,6.57
2023-04-16T19:57:54.456Z,7.00
2023-04-16T20:00:23.235Z,7.13
2023-04-16T20:02:54.668Z,6.05
2023-04-16T20:05:23.603Z,5.90
2023-04-16T20:07:52.831Z,6.93
2023-04-16T20:10:21.617Z,5.93
2023-04-16T20:12:50.975Z,6.80
2023-04-16T20:15:20.200Z,6.88
2023-04-16T20:17:49.258Z,6.55
2023-04-16T20:20:19.907Z,6.55
2023-04-16T20:22:48.734Z,6.57
2023-04-16T20:25:19.189Z,6.75
2023-04-16T20:27:48.183Z,7.47
2023-04-16T20:30:16.918Z,7.25
2023-04-16T20:32:45.816Z,6.03
2023-04-16T20:35:14.441Z,6.15
2023-04-16T20:37:44.570Z,5.60
2023-04-16T20:42:46.465Z,6.82
2023-04-16T20:45:15.602Z,5.97
2023-04-16T20:47:44.934Z,5.68
2023-04-16T20:50:13.809Z,6.18
2023-04-16T20:52:43.739Z,6.80
2023-04-16T20:55:14.461Z,6.70
2023-04-16T20:57:43.293Z,8.13
2023-04-16T21:00:13.070Z,7.63
2023-04-16T21:02:42.416Z,6.82
2023-04-16T21:05:13.921Z,7.53
2023-04-16T21:07:43.505Z,7.32
2023-04-16T21:10:12.744Z,6.40
2023-04-16T21:12:43.177Z,6.20
2023-04-16T21:15:12.347Z,6.22
2023-04-16T21:17:41.453Z,6.85
2023-04-16T21:20:13.662Z,5.97
2023-04-16T21:22:42.489Z,7.00
2023-04-16T21:25:11.409Z,6.97
2023-04-16T21:27:40.301Z,6.30
2023-04-16T21:30:11.825Z,6.40
2023-04-16T21:32:41.077Z,6.70
2023-04-16T21:35:11.043Z,7.13
2023-04-16T21:37:39.897Z,6.75
2023-04-16T21:40:09.551Z,7.28
2023-04-16T21:42:40.052Z,7.65
2023-04-16T21:45:12.244Z,7.63
2023-04-16T21:47:41.034Z,7.38
2023-04-16T21:50:10.528Z,7.35
2023-04-16T21:55:15.319Z,6.85
2023-04-16T21:57:44.472Z,6.95
2023-04-16T22:00:15.553Z,6.07
2023-04-16T22:02:45.524Z,7.18
2023-04-16T22:05:14.093Z,7.20
2023-04-16T22:07:43.098Z,6.50
2023-04-16T22:10:14.322Z,8.07
2023-04-16T22:12:45.008Z,7.55
2023-04-16T22:17:44.765Z,7.57
2023-04-16T22:20:14.044Z,8.65
2023-04-16T22:22:43.536Z,7.25
2023-04-16T22:25:12.484Z,7.75
2023-04-16T22:27:41.427Z,7.18
2023-04-16T22:30:10.756Z,7.20
2023-04-16T22:32:41.290Z,7.25
2023-04-16T22:35:10.944Z,7.80
2023-04-16T22:37:39.856Z,7.32
2023-04-16T22:40:10.921Z,7.00
2023-04-16T22:42:39.741Z,6.80
2023-04-16T22:45:09.112Z,8.55
2023-04-16T22:47:38.041Z,6.88
2023-04-16T22:50:10.947Z,6.95
2023-04-16T22:52:39.945Z,7.05
2023-04-16T22:55:09.322Z,6.80
2023-04-16T23:00:14.854Z,6.43
2023-04-16T23:02:45.038Z,7.30
2023-04-16T23:05:17.897Z,7.20
2023-04-16T23:07:47.124Z,6.75
2023-04-16T23:10:16.727Z,6.50
2023-04-16T23:12:46.167Z,7.57
2023-04-16T23:15:14.634Z,7.40
2023-04-16T23:17:43.616Z,6.78
2023-04-16T23:20:15.212Z,7.20
2023-04-16T23:22:43.900Z,7.10
2023-04-16T23:25:12.699Z,7.40
2023-04-16T23:27:41.495Z,7.15
2023-04-16T23:30:11.094Z,7.80
2023-04-16T23:32:39.887Z,7.60
2023-04-16T23:35:09.546Z,7.75
2023-04-16T23:37:39.870Z,7.60
2023-04-16T23:40:09.365Z,6.97
2023-04-16T23:42:38.661Z,8.50
2023-04-16T23:45:08.157Z,6.97
2023-04-16T23:47:37.205Z,7.78
2023-04-16T23:50:06.936Z,8.45
2023-04-16T23:52:36.033Z,7.18
2023-04-16T23:55:06.897Z,8.23
2023-04-16T23:57:35.999Z,7.70
